createdAt,value
2023-04-28T00:01:30.513Z,63.99
2023-04-28T00:04:33.532Z,64.03
2023-04-28T00:07:37.591Z,64.50
2023-04-28T00:10:41.715Z,63.95
2023-04-28T00:13:44.555Z,64.02
2023-04-28T00:16:47.404Z,63.63
2023-04-28T00:19:51.378Z,63.96
2023-04-28T00:22:54.216Z,64.14
2023-04-28T00:25:58.397Z,64.75
2023-04-28T00:29:01.247Z,65.36
2023-04-28T00:32:04.299Z,65.60
2023-04-28T00:35:07.615Z,66.42
2023-04-28T00:38:10.715Z,66.01
2023-04-28T00:41:15.546Z,65.19
2023-04-28T00:44:18.471Z,65.20
2023-04-28T00:47:21.362Z,65.31
2023-04-28T00:50:25.001Z,65.78
2023-04-28T00:53:28.716Z,65.89
2023-04-28T00:56:32.967Z,66.04
2023-04-28T00:59:35.698Z,65.94
2023-04-28T01:02:39.097Z,66.34
2023-04-28T01:05:42.007Z,66.26
2023-04-28T01:08:45.069Z,65.99
2023-04-28T01:11:49.251Z,66.54
2023-04-28T01:14:52.203Z,66.09
2023-04-28T01:17:54.966Z,66.61
2023-04-28T01:20:57.939Z,66.48
2023-04-28T01:24:02.731Z,66.72
2023-04-28T01:27:05.989Z,66.87
2023-04-28T01:30:10.473Z,66.80
2023-04-28T01:33:13.186Z,67.23
2023-04-28T01:36:16.110Z,67.00
2023-04-28T01:39:20.290Z,66.60
2023-04-28T01:42:23.178Z,67.52
2023-04-28T01:45:26.063Z,67.68
2023-04-28T01:48:28.723Z,67.17
2023-04-28T01:51:32.868Z,67.48
2023-04-28T01:54:36.971Z,67.82
2023-04-28T01:57:39.893Z,67.73
2023-04-28T02:00:42.601Z,67.66
2023-04-28T02:03:45.890Z,67.53
2023-04-28T02:06:48.736Z,67.85
2023-04-28T02:09:52.921Z,67.56
2023-04-28T02:12:55.581Z,67.40
2023-04-28T02:16:02.130Z,67.22
2023-04-28T02:19:05.111Z,66.50
2023-04-28T02:22:08.095Z,67.91
2023-04-28T02:25:12.617Z,67.12
2023-04-28T02:28:15.334Z,67.32
2023-04-28T02:31:19.212Z,67.19
2023-04-28T02:34:21.974Z,67.49
2023-04-28T02:37:24.897Z,67.49
2023-04-28T02:40:28.996Z,67.91
2023-04-28T02:43:32.395Z,67.17
2023-04-28T02:46:35.111Z,67.54
2023-04-28T02:49:37.940Z,67.04
2023-04-28T02:52:40.632Z,67.16
2023-04-28T02:55:44.856Z,67.19
2023-04-28T02:58:47.512Z,67.54
2023-04-28T03:01:50.959Z,67.58
2023-04-28T03:04:53.682Z,67.29
2023-04-28T03:07:56.552Z,66.74
2023-04-28T03:11:00.829Z,67.63
2023-04-28T03:14:03.654Z,68.00
2023-04-28T03:17:06.543Z,67.68
2023-04-28T03:20:10.877Z,67.22
2023-04-28T03:23:13.694Z,66.98
2023-04-28T03:26:17.779Z,66.70
2023-04-28T03:29:20.603Z,66.92
2023-04-28T03:32:23.299Z,66.38
2023-04-28T03:35:26.594Z,66.46
2023-04-28T03:38:29.429Z,66.10
2023-04-28T03:41:33.692Z,66.38
2023-04-28T03:44:36.370Z,66.55
2023-04-28T03:47:39.239Z,66.20
2023-04-28T03:50:42.508Z,66.18
2023-04-28T03:53:45.364Z,66.01
2023-04-28T03:56:49.467Z,65.79
2023-04-28T03:59:52.243Z,65.20
2023-04-28T04:02:55.050Z,65.33
2023-04-28T04:05:58.457Z,64.16
2023-04-28T04:09:01.676Z,63.92
2023-04-28T04:12:06.516Z,63.81
2023-04-28T04:15:10.663Z,62.98
2023-04-28T04:18:13.410Z,62.53
2023-04-28T04:21:16.225Z,62.48
2023-04-28T04:24:19.125Z,61.35
2023-04-28T04:27:23.346Z,60.58
2023-04-28T04:30:26.090Z,61.39
2023-04-28T04:33:29.077Z,60.99
2023-04-28T04:36:32.992Z,60.54
2023-04-28T04:39:35.712Z,60.43
2023-04-28T04:42:39.794Z,59.90
2023-04-28T04:45:42.653Z,59.32
2023-04-28T04:48:45.516Z,58.22
2023-04-28T04:51:48.237Z,56.54
2023-04-28T04:54:51.049Z,57.25
2023-04-28T04:57:55.440Z,55.65
2023-04-28T05:00:58.361Z,55.45
2023-04-28T05:04:01.268Z,54.48
2023-04-28T05:07:04.192Z,52.60
2023-04-28T05:10:08.554Z,53.62
2023-04-28T05:13:12.633Z,51.26
2023-04-28T05:16:15.487Z,50.72
2023-04-28T05:19:18.242Z,50.65
2023-04-28T05:22:21.045Z,49.17
2023-04-28T05:25:23.967Z,49.21
2023-04-28T05:28:28.151Z,49.01
2023-04-28T05:31:31.107Z,49.86
2023-04-28T05:34:33.803Z,49.40
2023-04-28T05:37:37.781Z,49.46
2023-04-28T05:40:40.543Z,49.58
2023-04-28T05:43:44.758Z,49.66
2023-04-28T05:46:47.454Z,48.60
2023-04-28T05:49:50.324Z,47.85
2023-04-28T05:52:53.046Z,47.76
2023-04-28T05:55:56.095Z,47.18
2023-04-28T05:59:03.996Z,46.10
2023-04-28T06:02:06.806Z,45.36
2023-04-28T06:05:10.804Z,45.13
2023-04-28T06:08:13.615Z,45.02
2023-04-28T06:11:16.880Z,44.94
2023-04-28T06:14:21.313Z,44.10
2023-04-28T06:17:24.203Z,43.59
2023-04-28T06:20:26.987Z,42.17
2023-04-28T06:23:29.879Z,42.55
2023-04-28T06:26:32.758Z,41.28
2023-04-28T06:29:37.097Z,39.88
2023-04-28T06:32:40.022Z,39.60
2023-04-28T06:35:42.827Z,38.28
2023-04-28T06:38:46.161Z,37.38
2023-04-28T06:41:48.877Z,35.96
2023-04-28T06:44:52.955Z,35.22
2023-04-28T06:47:56.965Z,36.12
2023-04-28T06:50:59.730Z,34.65
2023-04-28T06:54:02.640Z,34.29
2023-04-28T06:57:05.566Z,33.14
2023-04-28T07:00:11.142Z,33.31
2023-04-28T07:03:13.987Z,31.98
2023-04-28T07:06:17.155Z,31.69
2023-04-28T07:09:20.353Z,30.88
2023-04-28T07:12:23.674Z,31.15
2023-04-28T07:15:28.110Z,30.32
2023-04-28T07:18:31.117Z,29.68
2023-04-28T07:21:34.588Z,30.34
2023-04-28T07:24:37.433Z,30.63
2023-04-28T07:27:40.315Z,30.21
2023-04-28T07:30:44.495Z,31.50
2023-04-28T07:33:47.550Z,29.87
2023-04-28T07:36:50.436Z,29.22
2023-04-28T07:39:53.384Z,28.36
2023-04-28T07:42:56.236Z,28.64
2023-04-28T07:46:00.425Z,29.60
2023-04-28T07:49:04.880Z,28.95
2023-04-28T07:52:07.681Z,27.99
2023-04-28T07:55:10.454Z,28.29
2023-04-28T07:58:13.374Z,28.55
2023-04-28T08:01:17.446Z,28.39
2023-04-28T08:04:20.624Z,28.45
2023-04-28T08:07:24.690Z,27.40
2023-04-28T08:10:27.741Z,27.56
2023-04-28T08:13:30.935Z,27.86
2023-04-28T08:16:38.504Z,27.16
2023-04-28T08:19:41.443Z,27.62
2023-04-28T08:22:44.579Z,26.98
2023-04-28T08:25:48.148Z,26.96
2023-04-28T08:28:50.955Z,25.74
2023-04-28T08:31:55.059Z,26.16
2023-04-28T08:34:57.767Z,26.46
2023-04-28T08:38:00.532Z,26.80
2023-04-28T08:41:05.189Z,26.62
2023-04-28T08:44:09.996Z,26.72
2023-04-28T08:47:14.981Z,26.27
2023-04-28T08:50:22.566Z,26.39
2023-04-28T08:53:26.837Z,26.44
2023-04-28T08:56:33.881Z,26.74
2023-04-28T08:59:39.762Z,26.00
2023-04-28T09:02:44.032Z,26.18
2023-04-28T09:05:47.337Z,26.82
2023-04-28T09:08:50.515Z,26.08
2023-04-28T09:11:55.498Z,26.38
2023-04-28T09:15:01.553Z,25.98
2023-04-28T09:18:08.105Z,26.46
2023-04-28T09:21:12.984Z,26.38
2023-04-28T09:24:27.672Z,25.12
2023-04-28T09:27:30.483Z,25.20
2023-04-28T09:30:40.980Z,25.75
2023-04-28T09:33:57.914Z,25.56
2023-04-28T09:37:00.701Z,27.04
2023-04-28T09:40:08.642Z,25.89
2023-04-28T09:43:24.791Z,25.33
2023-04-28T09:46:30.450Z,25.39
2023-04-28T09:49:54.989Z,25.37
2023-04-28T09:52:59.319Z,25.61
2023-04-28T09:56:05.572Z,25.32
2023-04-28T09:59:08.418Z,26.16
2023-04-28T10:02:31.996Z,26.14
2023-04-28T10:05:37.061Z,25.69
2023-04-28T10:08:40.650Z,27.25
2023-04-28T10:11:43.886Z,25.88
2023-04-28T10:14:50.000Z,25.15
2023-04-28T10:17:54.284Z,26.08
2023-04-28T10:21:01.206Z,25.48
2023-04-28T10:24:14.741Z,25.46
2023-04-28T10:27:18.622Z,25.92
2023-04-28T10:30:28.147Z,25.31
2023-04-28T10:33:32.312Z,25.94
2023-04-28T10:36:55.478Z,25.50
2023-04-28T10:40:34.508Z,25.27
2023-04-28T10:43:40.488Z,25.06
2023-04-28T10:47:01.912Z,25.48
2023-04-28T10:50:12.352Z,25.08
2023-04-28T10:53:16.446Z,25.78
2023-04-28T10:56:21.667Z,24.39
2023-04-28T10:59:28.498Z,25.29
2023-04-28T11:02:44.412Z,25.69
2023-04-28T11:06:21.442Z,25.19
2023-04-28T11:09:50.344Z,25.82
2023-04-28T11:13:26.903Z,25.82
2023-04-28T11:16:30.181Z,25.95
2023-04-28T11:19:34.804Z,25.94
2023-04-28T11:22:37.897Z,25.89
2023-04-28T11:29:05.571Z,26.18
2023-04-28T11:32:08.060Z,26.28
2023-04-28T11:35:09.524Z,27.46
2023-04-28T11:38:10.864Z,26.68
2023-04-28T11:41:12.574Z,26.85
2023-04-28T11:44:16.528Z,26.95
2023-04-28T11:47:28.762Z,26.85
2023-04-28T11:50:36.209Z,26.67
2023-04-28T11:53:41.543Z,26.75
2023-04-28T11:56:44.256Z,27.66
2023-04-28T11:59:46.990Z,27.24
2023-04-28T12:02:48.874Z,27.28
2023-04-28T12:05:50.354Z,26.54
2023-04-28T12:08:52.114Z,26.14
2023-04-28T12:11:56.171Z,26.92
2023-04-28T12:15:00.907Z,26.53
2023-04-28T12:18:09.504Z,27.40
2023-04-28T12:21:21.108Z,27.14
2023-04-28T12:24:23.916Z,27.96
2023-04-28T12:27:25.868Z,27.62
2023-04-28T12:30:28.785Z,27.76
2023-04-28T12:33:40.948Z,28.06
2023-04-28T12:36:44.170Z,28.03
2023-04-28T12:39:45.957Z,28.46
2023-04-28T12:42:47.764Z,28.89
2023-04-28T12:45:49.835Z,29.00
2023-04-28T12:48:51.184Z,29.01
2023-04-28T12:51:52.595Z,28.77
2023-04-28T12:54:53.917Z,29.17
2023-04-28T12:57:55.260Z,29.28
2023-04-28T13:00:57.489Z,29.74
2023-04-28T13:03:59.103Z,29.73
2023-04-28T13:07:02.408Z,29.49
2023-04-28T13:10:04.161Z,29.51
2023-04-28T13:13:05.703Z,29.83
2023-04-28T13:16:08.099Z,29.49
2023-04-28T13:19:13.082Z,29.59
2023-04-28T13:22:14.988Z,29.51
2023-04-28T13:25:18.931Z,29.44
2023-04-28T13:28:20.444Z,29.32
2023-04-28T13:31:22.485Z,29.06
2023-04-28T13:34:23.988Z,30.03
2023-04-28T13:37:25.762Z,30.13
2023-04-28T13:40:27.713Z,29.66
2023-04-28T13:46:50.503Z,30.40
2023-04-28T13:49:51.780Z,30.64
2023-04-28T13:52:53.511Z,31.04
2023-04-28T13:55:56.766Z,30.58
2023-04-28T13:58:58.308Z,31.49
2023-04-28T14:02:00.399Z,31.29
2023-04-28T14:05:01.692Z,31.23
2023-04-28T14:08:03.466Z,31.84
2023-04-28T14:11:05.035Z,31.64
2023-04-28T14:14:06.576Z,32.65
2023-04-28T14:17:08.747Z,32.50
2023-04-28T14:20:11.074Z,33.25
2023-04-28T14:23:12.335Z,33.57
2023-04-28T14:26:14.263Z,33.82
2023-04-28T14:29:15.713Z,34.95
2023-04-28T14:32:21.367Z,35.13
2023-04-28T14:35:22.762Z,35.56
2023-04-28T14:38:24.338Z,35.95
2023-04-28T14:41:25.724Z,35.93
2023-04-28T14:44:27.202Z,35.52
2023-04-28T14:47:29.729Z,36.14
2023-04-28T14:50:31.267Z,35.65
2023-04-28T14:53:33.191Z,35.95
2023-04-28T14:56:34.586Z,36.17
2023-04-28T14:59:36.726Z,36.81
2023-04-28T15:02:39.504Z,36.75
2023-04-28T15:05:41.199Z,36.36
2023-04-28T15:08:42.522Z,37.07
2023-04-28T15:11:44.138Z,36.57
2023-04-28T15:14:45.650Z,37.14
2023-04-28T15:17:47.700Z,37.51
2023-04-28T15:20:49.412Z,37.48
2023-04-28T15:23:50.800Z,37.88
2023-04-28T15:26:53.146Z,38.16
2023-04-28T15:29:55.002Z,38.34
2023-04-28T15:32:56.995Z,38.73
2023-04-28T15:35:58.546Z,38.58
2023-04-28T15:38:59.837Z,39.07
2023-04-28T15:42:01.353Z,39.31
2023-04-28T15:45:03.368Z,40.14
2023-04-28T15:48:06.396Z,40.31
2023-04-28T15:51:09.463Z,41.62
2023-04-28T15:54:10.754Z,42.36
2023-04-28T15:57:12.077Z,41.53
2023-04-28T16:00:14.815Z,42.31
2023-04-28T16:03:17.044Z,42.51
2023-04-28T16:06:18.402Z,43.51
2023-04-28T16:09:20.346Z,43.48
2023-04-28T16:12:21.834Z,43.51
2023-04-28T16:15:23.359Z,44.80
2023-04-28T16:18:25.743Z,44.20
2023-04-28T16:21:27.245Z,45.01
2023-04-28T16:24:29.339Z,45.36
2023-04-28T16:27:31.297Z,44.90
2023-04-28T16:30:34.356Z,45.62
2023-04-28T16:33:36.338Z,46.00
2023-04-28T16:36:39.491Z,46.03
2023-04-28T16:39:41.282Z,45.99
2023-04-28T16:42:44.677Z,47.57
2023-04-28T16:45:46.486Z,47.34
2023-04-28T16:48:49.132Z,46.45
2023-04-28T16:51:57.498Z,47.06
2023-04-28T16:54:59.782Z,47.60
2023-04-28T16:58:01.530Z,47.57
2023-04-28T17:01:02.857Z,47.95
2023-04-28T17:04:06.537Z,48.13
2023-04-28T17:07:07.992Z,47.79
2023-04-28T17:10:10.462Z,48.58
2023-04-28T17:13:11.783Z,47.77
2023-04-28T17:16:13.148Z,48.71
2023-04-28T17:19:15.931Z,49.25
2023-04-28T17:22:17.859Z,49.70
2023-04-28T17:25:21.864Z,50.37
2023-04-28T17:28:24.750Z,50.65
2023-04-28T17:31:26.973Z,51.30
2023-04-28T17:34:28.952Z,52.96
2023-04-28T17:37:32.353Z,54.36
2023-04-28T17:40:33.665Z,55.77
2023-04-28T17:43:36.045Z,56.92
2023-04-28T17:46:37.924Z,57.96
2023-04-28T17:49:41.199Z,59.86
2023-04-28T17:52:44.085Z,59.57
2023-04-28T17:55:45.597Z,60.53
2023-04-28T17:58:47.192Z,62.70
2023-04-28T18:01:48.529Z,63.22
2023-04-28T18:04:51.553Z,61.10
2023-04-28T18:07:53.360Z,62.41
2023-04-28T18:10:55.037Z,62.92
2023-04-28T18:13:58.177Z,62.92
2023-04-28T18:16:59.858Z,62.80
2023-04-28T18:20:05.720Z,62.67
2023-04-28T18:23:07.234Z,63.27
2023-04-28T18:26:08.714Z,64.51
2023-04-28T18:29:10.005Z,64.20
2023-04-28T18:32:14.471Z,64.30
2023-04-28T18:35:17.640Z,65.64
2023-04-28T18:38:19.586Z,66.14
2023-04-28T18:41:21.048Z,65.77
2023-04-28T18:44:22.475Z,67.85
2023-04-28T18:47:24.891Z,68.69
2023-04-28T18:50:27.318Z,69.70
2023-04-28T18:53:28.972Z,67.31
2023-04-28T18:56:30.237Z,68.05
2023-04-28T18:59:31.848Z,68.16
2023-04-28T19:02:33.654Z,68.45
2023-04-28T19:05:35.665Z,67.86
2023-04-28T19:08:39.188Z,68.70
2023-04-28T19:11:40.508Z,69.00
2023-04-28T19:14:41.942Z,68.46
2023-04-28T19:17:43.779Z,66.87
2023-04-28T19:20:45.875Z,67.51
2023-04-28T19:23:47.699Z,66.03
2023-04-28T19:26:48.990Z,67.03
2023-04-28T19:29:50.855Z,66.18
2023-04-28T19:32:52.404Z,65.91
2023-04-28T19:35:54.590Z,66.41
2023-04-28T19:38:56.051Z,67.37
2023-04-28T19:41:58.318Z,67.50
2023-04-28T19:44:59.618Z,68.07
2023-04-28T19:48:01.309Z,67.70
2023-04-28T19:51:03.882Z,67.73
2023-04-28T19:54:05.244Z,67.40
2023-04-28T19:57:07.326Z,67.88
2023-04-28T20:00:09.645Z,66.77
2023-04-28T20:03:11.208Z,66.41
2023-04-28T20:06:16.648Z,66.94
2023-04-28T20:09:18.060Z,65.43
2023-04-28T20:12:19.354Z,63.88
2023-04-28T20:15:21.091Z,62.67
2023-04-28T20:18:22.377Z,61.79
2023-04-28T20:21:26.739Z,62.09
2023-04-28T20:24:28.025Z,61.84
2023-04-28T20:27:29.514Z,62.60
2023-04-28T20:30:30.838Z,62.18
2023-04-28T20:33:32.333Z,62.21
2023-04-28T20:36:34.270Z,62.31
2023-04-28T20:39:35.728Z,62.73
2023-04-28T20:42:37.286Z,62.47
2023-04-28T20:45:41.083Z,61.81
2023-04-28T20:48:42.602Z,62.43
2023-04-28T20:51:44.791Z,62.50
2023-04-28T20:54:46.560Z,62.83
2023-04-28T20:57:47.844Z,62.26
2023-04-28T21:00:49.369Z,62.12
2023-04-28T21:03:50.756Z,62.59
2023-04-28T21:06:54.110Z,62.18
2023-04-28T21:09:55.398Z,62.23
2023-04-28T21:12:56.838Z,63.10
2023-04-28T21:15:58.564Z,63.31
2023-04-28T21:19:00.306Z,62.97
2023-04-28T21:22:03.386Z,63.07
2023-04-28T21:25:07.739Z,63.11
2023-04-28T21:28:10.241Z,63.06
2023-04-28T21:31:11.623Z,63.14
2023-04-28T21:34:13.098Z,62.76
2023-04-28T21:37:15.049Z,62.49
2023-04-28T21:40:18.897Z,62.94
2023-04-28T21:43:21.663Z,62.53
2023-04-28T21:46:23.487Z,62.71
2023-04-28T21:49:24.977Z,63.05
2023-04-28T21:52:27.121Z,63.56
2023-04-28T21:55:28.613Z,63.30
2023-04-28T21:58:29.881Z,63.46
2023-04-28T22:01:31.445Z,63.80
2023-04-28T22:04:33.671Z,62.70
2023-04-28T22:07:35.970Z,63.47
2023-04-28T22:10:37.554Z,63.31
2023-04-28T22:13:39.043Z,62.91
2023-04-28T22:16:40.506Z,63.64
2023-04-28T22:19:41.978Z,64.12
2023-04-28T22:22:44.079Z,63.63
2023-04-28T22:25:45.625Z,63.88
2023-04-28T22:28:48.193Z,64.09
2023-04-28T22:31:49.445Z,64.24
2023-04-28T22:34:50.943Z,64.14
2023-04-28T22:37:53.196Z,64.43
2023-04-28T22:40:54.501Z,64.77
2023-04-28T22:43:55.990Z,64.50
2023-04-28T22:46:57.413Z,64.24
2023-04-28T22:49:59.110Z,64.38
2023-04-28T22:53:01.074Z,63.79
2023-04-28T22:56:02.711Z,63.89
2023-04-28T22:59:04.786Z,63.73
2023-04-28T23:02:07.180Z,64.71
2023-04-28T23:05:08.964Z,63.96
2023-04-28T23:08:10.900Z,64.48
2023-04-28T23:11:12.358Z,64.70
2023-04-28T23:14:13.741Z,63.86
2023-04-28T23:17:15.682Z,65.21
2023-04-28T23:20:17.266Z,65.15
2023-04-28T23:23:19.366Z,64.75
2023-04-28T23:26:21.089Z,63.94
2023-04-28T23:29:22.832Z,64.12
2023-04-28T23:32:24.519Z,64.47
2023-04-28T23:35:25.885Z,64.64
2023-04-28T23:38:28.070Z,64.42
2023-04-28T23:41:29.393Z,64.33
2023-04-28T23:44:30.878Z,64.52
2023-04-28T23:47:32.299Z,65.00
2023-04-28T23:50:33.760Z,64.65
2023-04-28T23:53:35.920Z,63.99
2023-04-28T23:56:37.754Z,64.11
2023-04-28T23:59:39.327Z,65.21
